Time;durP1;ratioP1;P1;durP2;ratioP2;P2;SDS_P1;SDS_P2;PMS_P1;PMS_P2;Temp;Humidity;BMP_temperature;BMP_pressure;BME280_temperature;BME280_humidity;BME280_pressure;Samples;Min_cycle;Max_cycle;Signal;HPM_P1;HPM_P2
2024/03/23 06:02:29;;;;;;;;;;;;;;;;;;5038717;23;19926;-51
2024/03/23 06:04:55;;;;;;;;;;;;;;;;;;4994037;28;19917;-49
2024/03/23 06:07:21;;;;;;;;;;;;;;;;;;4985254;28;19925;-49
2024/03/23 06:09:47;;;;;;;;;;;;;;;;;;4991603;28;19934;-47
2024/03/23 06:12:13;;;;;;;;;;;;;;;;;;4976058;28;20350;-49
2024/03/23 06:14:39;;;;;;;;;;;;;;;;;;4993587;28;20307;-50
2024/03/23 06:17:05;;;;;;;;;;;;;;;;;;4993630;28;19918;-49
2024/03/23 06:19:31;;;;;;;;;;;;;;;;;;4993300;28;19920;-48
2024/03/23 06:21:57;;;;;;;;;;;;;;;;;;4993881;28;19909;-50
2024/03/23 06:24:24;;;;;;;;;;;;;;;;;;4993621;28;20286;-49
2024/03/23 06:26:50;;;;;;;;;;;;;;;;;;4993423;28;19916;-49
2024/03/23 06:29:16;;;;;;;;;;;;;;;;;;4992991;28;19913;-51
2024/03/23 06:31:42;;;;;;;;;;;;;;;;;;4993482;28;19910;-49
2024/03/23 06:34:07;;;;;;;;;;;;;;;;;;4992569;28;19909;-49
2024/03/23 06:36:33;;;;;;;;;;;;;;;;;;4992998;28;19913;-51
2024/03/23 06:38:59;;;;;;;;;;;;;;;;;;4992864;28;19925;-47
2024/03/23 06:41:25;;;;;;;;;;;;;;;;;;4992952;28;20446;-50
2024/03/23 06:43:51;;;;;;;;;;;;;;;;;;4992805;28;19949;-51
2024/03/23 06:46:17;;;;;;;;;;;;;;;;;;4992744;28;20202;-50
2024/03/23 06:48:43;;;;;;;;;;;;;;;;;;4992865;28;19910;-50
2024/03/23 06:51:09;;;;;;;;;;;;;;;;;;4992982;28;19910;-52
2024/03/23 06:53:35;;;;;;;;;;;;;;;;;;4981608;28;19914;-49
2024/03/23 06:56:01;;;;;;;;;;;;;;;;;;4973372;28;19918;-51
2024/03/23 06:58:27;;;;;;;;;;;;;;;;;;4973413;28;19941;-49
2024/03/23 07:00:52;;;;;;;;;;;;;;;;;;4973007;28;19930;-46
2024/03/23 07:03:18;;;;;;;;;;;;;;;;;;4973174;28;19917;-48
2024/03/23 07:05:46;;;;;;;;;;;;;;;;;;4973233;28;20410;-47
2024/03/23 07:08:12;;;;;;;;;;;;;;;;;;4973047;28;20349;-48
2024/03/23 07:10:37;;;;;;;;;;;;;;;;;;4973119;28;19910;-47
2024/03/23 07:13:03;;;;;;;;;;;;;;;;;;4972767;28;19916;-47
2024/03/23 07:15:29;;;;;;;;;;;;;;;;;;4973007;28;20399;-51
2024/03/23 07:17:55;;;;;;;;;;;;;;;;;;4972924;28;19910;-51
2024/03/23 07:20:21;;;;;;;;;;;;;;;;;;4972759;28;19961;-50
2024/03/23 07:22:47;;;;;;;;;;;;;;;;;;4973243;28;19910;-50
2024/03/23 07:25:13;;;;;;;;;;;;;;;;;;4975460;28;19914;-49
2024/03/23 07:27:39;;;;;;;;;;;;;;;;;;4973006;28;19914;-48
2024/03/23 07:30:05;;;;;;;;;;;;;;;;;;4973672;28;19910;-47
2024/03/23 07:32:31;;;;;;;;;;;;;;;;;;4977293;28;19915;-50
2024/03/23 07:34:56;;;;;;;;;;;;;;;;;;4973514;28;19956;-46
2024/03/23 07:37:22;;;;;;;;;;;;;;;;;;4974525;28;20439;-48
2024/03/23 07:39:48;;;;;;;;;;;;;;;;;;4973141;28;20005;-46
2024/03/23 07:42:14;;;;;;;;;;;;;;;;;;4974210;28;19921;-50
2024/03/23 07:44:40;;;;;;;;;;;;;;;;;;4972972;28;19960;-47
2024/03/23 07:47:06;;;;;;;;;;;;;;;;;;4973196;28;19910;-50
2024/03/23 07:49:32;;;;;;;;;;;;;;;;;;4985189;28;19921;-50
2024/03/23 07:51:58;;;;;;;;;;;;;;;;;;4975500;28;19910;-48
2024/03/23 07:54:24;;;;;;;;;;;;;;;;;;4973257;28;19914;-49
2024/03/23 07:56:50;;;;;;;;;;;;;;;;;;4972990;28;19958;-50
2024/03/23 07:59:15;;;;;;;;;;;;;;;;;;4973633;28;19937;-51
2024/03/23 08:01:41;;;;;;;;;;;;;;;;;;4972869;28;19925;-47
2024/03/23 08:04:07;;;;;;;;;;;;;;;;;;4972708;28;19949;-49
2024/03/23 08:06:33;;;;;;;;;;;;;;;;;;4974412;28;20330;-49
2024/03/23 08:08:59;;;;;;;;;;;;;;;;;;4955844;28;19910;-49
2024/03/23 08:11:25;;;;;;;;;;;;;;;;;;4972779;28;19933;-49
2024/03/23 08:13:51;;;;;;;;;;;;;;;;;;4972467;28;20004;-50
2024/03/23 08:16:17;;;;;;;;;;;;;;;;;;4972357;28;20352;-46
2024/03/23 08:18:43;;;;;;;;;;;;;;;;;;4972840;28;19910;-50
2024/03/23 08:21:09;;;;;;;;;;;;;;;;;;4972214;28;20005;-51
2024/03/23 08:23:39;;;;;;;;;;;;;;;;;;4974046;28;20017;-50
2024/03/23 08:26:04;;;;;;;;;;;;;;;;;;4972299;28;20295;-49
2024/03/23 08:28:30;;;;;;;;;;;;;;;;;;4984303;28;19914;-46
2024/03/23 08:30:56;;;;;;;;;;;;;;;;;;4981097;28;20008;-48
2024/03/23 08:33:23;;;;;;;;;;;;;;;;;;4991820;28;20367;-49
2024/03/23 08:35:49;;;;;;;;;;;;;;;;;;4992010;28;20299;-48
2024/03/23 08:38:15;;;;;;;;;;;;;;;;;;4991797;28;19910;-49
2024/03/23 08:40:41;;;;;;;;;;;;;;;;;;4973550;28;19968;-46
2024/03/23 08:43:07;;;;;;;;;;;;;;;;;;4970452;28;19921;-50
2024/03/23 08:45:33;;;;;;;;;;;;;;;;;;4971995;28;20292;-49
2024/03/23 08:47:58;;;;;;;;;;;;;;;;;;4971764;28;19953;-48
2024/03/23 08:50:24;;;;;;;;;;;;;;;;;;4971028;28;19922;-49
2024/03/23 08:52:50;;;;;;;;;;;;;;;;;;4972597;28;19945;-51
2024/03/23 08:55:16;;;;;;;;;;;;;;;;;;4973604;28;20299;-49
2024/03/23 08:57:42;;;;;;;;;;;;;;;;;;4973640;28;19918;-48
2024/03/23 09:00:08;;;;;;;;;;;;;;;;;;4980962;28;19913;-49
2024/03/23 09:02:34;;;;;;;;;;;;;;;;;;4975626;28;19918;-50
2024/03/23 09:05:04;;;;;;;;;;;;;;;;;;4975326;28;19917;-50
2024/03/23 09:07:30;;;;;;;;;;;;;;;;;;4976969;28;20446;-49
2024/03/23 09:09:55;;;;;;;;;;;;;;;;;;4975249;28;19996;-51
2024/03/23 09:12:21;;;;;;;;;;;;;;;;;;4976057;28;19968;-50
2024/03/23 09:14:47;;;;;;;;;;;;;;;;;;4975032;28;20025;-50
2024/03/23 09:17:13;;;;;;;;;;;;;;;;;;4975401;28;19916;-50
2024/03/23 09:19:39;;;;;;;;;;;;;;;;;;4974658;28;19917;-48
2024/03/23 09:22:05;;;;;;;;;;;;;;;;;;4975436;28;20391;-48
2024/03/23 09:24:32;;;;;;;;;;;;;;;;;;4975145;28;19914;-47
2024/03/23 09:26:57;;;;;;;;;;;;;;;;;;4974817;28;19910;-51
2024/03/23 09:29:23;;;;;;;;;;;;;;;;;;4974989;28;19917;-52
2024/03/23 09:31:49;;;;;;;;;;;;;;;;;;4974742;28;19949;-50
2024/03/23 09:34:15;;;;;;;;;;;;;;;;;;4974808;28;20000;-48
2024/03/23 09:36:41;;;;;;;;;;;;;;;;;;4974464;28;19918;-47
2024/03/23 09:39:09;;;;;;;;;;;;;;;;;;4975006;28;20437;-49
2024/03/23 09:41:35;;;;;;;;;;;;;;;;;;4974966;28;20026;-49
2024/03/23 09:44:01;;;;;;;;;;;;;;;;;;4974958;28;20295;-49
2024/03/23 09:46:28;;;;;;;;;;;;;;;;;;4974756;28;19914;-50
2024/03/23 09:48:54;;;;;;;;;;;;;;;;;;4974453;28;20012;-50
2024/03/23 09:51:20;;;;;;;;;;;;;;;;;;4974442;28;20355;-50
2024/03/23 09:53:46;;;;;;;;;;;;;;;;;;4974485;28;19910;-49
2024/03/23 09:56:11;;;;;;;;;;;;;;;;;;4974426;28;19914;-51
2024/03/23 09:58:38;;;;;;;;;;;;;;;;;;4974681;28;19917;-50
2024/03/23 10:01:03;;;;;;;;;;;;;;;;;;4974424;28;19918;-50
2024/03/23 10:03:29;;;;;;;;;;;;;;;;;;4974482;28;19910;-51
2024/03/23 10:05:55;;;;;;;;;;;;;;;;;;4974146;28;20374;-51
2024/03/23 10:08:21;;;;;;;;;;;;;;;;;;4973687;28;19915;-48
2024/03/23 10:10:47;;;;;;;;;;;;;;;;;;4974221;28;19910;-50
2024/03/23 10:13:13;;;;;;;;;;;;;;;;;;4974216;28;20306;-48
2024/03/23 10:15:39;;;;;;;;;;;;;;;;;;4974391;28;20013;-48
2024/03/23 10:18:05;;;;;;;;;;;;;;;;;;4974011;28;19910;-47
2024/03/23 10:20:31;;;;;;;;;;;;;;;;;;4973985;28;20379;-47
2024/03/23 10:22:57;;;;;;;;;;;;;;;;;;4974114;28;20021;-50
2024/03/23 10:25:23;;;;;;;;;;;;;;;;;;4972561;28;19914;-50
2024/03/23 10:27:49;;;;;;;;;;;;;;;;;;4973985;28;20387;-48
2024/03/23 10:30:15;;;;;;;;;;;;;;;;;;4969317;28;19914;-49
2024/03/23 10:32:41;;;;;;;;;;;;;;;;;;4970789;28;19918;-46
2024/03/23 10:35:06;;;;;;;;;;;;;;;;;;4985770;28;19927;-47
2024/03/23 10:37:32;;;;;;;;;;;;;;;;;;4992877;28;19920;-52
2024/03/23 10:39:58;;;;;;;;;;;;;;;;;;4974151;28;20001;-51
2024/03/23 10:42:24;;;;;;;;;;;;;;;;;;4971181;28;19976;-47
2024/03/23 10:44:50;;;;;;;;;;;;;;;;;;4973656;28;19910;-47
2024/03/23 10:47:16;;;;;;;;;;;;;;;;;;4973285;28;20384;-50
2024/03/23 10:49:43;;;;;;;;;;;;;;;;;;4973702;28;19910;-50
2024/03/23 10:52:08;;;;;;;;;;;;;;;;;;4992015;28;19910;-48
2024/03/23 10:54:34;;;;;;;;;;;;;;;;;;4981218;28;20288;-48
2024/03/23 10:57:00;;;;;;;;;;;;;;;;;;4971700;28;20214;-47
2024/03/23 10:59:26;;;;;;;;;;;;;;;;;;4971214;28;20439;-50
2024/03/23 11:01:52;;;;;;;;;;;;;;;;;;4972841;28;19918;-48
2024/03/23 11:04:18;;;;;;;;;;;;;;;;;;4972007;28;19910;-50
2024/03/23 11:06:44;;;;;;;;;;;;;;;;;;4973171;28;20360;-51
2024/03/23 11:09:10;;;;;;;;;;;;;;;;;;4972037;28;19906;-47
2024/03/23 11:11:35;;;;;;;;;;;;;;;;;;4972739;28;19910;-50
2024/03/23 11:14:02;;;;;;;;;;;;;;;;;;4973008;28;19911;-49
2024/03/23 11:16:29;;;;;;;;;;;;;;;;;;4973018;28;19914;-50
2024/03/23 11:18:55;;;;;;;;;;;;;;;;;;4972907;28;19910;-56
2024/03/23 11:21:21;;;;;;;;;;;;;;;;;;4972638;28;19957;-49
2024/03/23 11:23:47;;;;;;;;;;;;;;;;;;4972557;28;20391;-47
2024/03/23 11:26:13;;;;;;;;;;;;;;;;;;4973015;28;19916;-49
2024/03/23 11:28:39;;;;;;;;;;;;;;;;;;4972730;28;19910;-50
2024/03/23 11:31:05;;;;;;;;;;;;;;;;;;4971513;28;20248;-49
2024/03/23 11:33:31;;;;;;;;;;;;;;;;;;4972313;28;19965;-50
2024/03/23 11:35:57;;;;;;;;;;;;;;;;;;4961833;28;19957;-48
2024/03/23 11:38:23;;;;;;;;;;;;;;;;;;4971789;28;20328;-51
2024/03/23 11:40:49;;;;;;;;;;;;;;;;;;4972569;28;19910;-49
2024/03/23 11:43:15;;;;;;;;;;;;;;;;;;4972061;28;20402;-50
2024/03/23 11:45:41;;;;;;;;;;;;;;;;;;4973630;28;19921;-47
2024/03/23 11:48:07;;;;;;;;;;;;;;;;;;4979642;28;20257;-46
2024/03/23 11:50:33;;;;;;;;;;;;;;;;;;4992428;28;19920;-51
2024/03/23 11:52:59;;;;;;;;;;;;;;;;;;4973939;28;19914;-52
2024/03/23 11:55:25;;;;;;;;;;;;;;;;;;4955017;28;19922;-51
2024/03/23 11:57:51;;;;;;;;;;;;;;;;;;4972925;28;20415;-50
2024/03/23 12:00:17;;;;;;;;;;;;;;;;;;4972371;28;19918;-47
2024/03/23 12:02:43;;;;;;;;;;;;;;;;;;4974588;28;19918;-51
2024/03/23 12:05:09;;;;;;;;;;;;;;;;;;4982962;28;19989;-47
2024/03/23 12:07:34;;;;;;;;;;;;;;;;;;4971499;28;20343;-48
2024/03/23 12:10:00;;;;;;;;;;;;;;;;;;4970242;28;19918;-53
2024/03/23 12:12:26;;;;;;;;;;;;;;;;;;4975236;28;20372;-49
2024/03/23 12:14:52;;;;;;;;;;;;;;;;;;4973332;28;19920;-50
2024/03/23 12:17:18;;;;;;;;;;;;;;;;;;4970891;28;20423;-49
2024/03/23 12:19:45;;;;;;;;;;;;;;;;;;4970684;28;19921;-50
2024/03/23 12:22:11;;;;;;;;;;;;;;;;;;4975585;28;19921;-47
2024/03/23 12:24:38;;;;;;;;;;;;;;;;;;4974346;28;20340;-47
2024/03/23 12:27:04;;;;;;;;;;;;;;;;;;4971218;28;20418;-50
2024/03/23 12:29:31;;;;;;;;;;;;;;;;;;4976500;28;19915;-50
2024/03/23 12:31:57;;;;;;;;;;;;;;;;;;4976957;28;20280;-50
2024/03/23 12:34:23;;;;;;;;;;;;;;;;;;4968932;28;19921;-50
2024/03/23 12:36:49;;;;;;;;;;;;;;;;;;4960006;28;19925;-52
2024/03/23 12:39:15;;;;;;;;;;;;;;;;;;4971183;28;20720;-51
2024/03/23 12:41:40;;;;;;;;;;;;;;;;;;4973526;28;19918;-50
2024/03/23 12:44:08;;;;;;;;;;;;;;;;;;4973477;28;19914;-48
2024/03/23 12:46:34;;;;;;;;;;;;;;;;;;4968730;28;19914;-50
2024/03/23 12:49:00;;;;;;;;;;;;;;;;;;4990546;28;19914;-48
2024/03/23 12:51:25;;;;;;;;;;;;;;;;;;4986371;28;19911;-51
2024/03/23 12:53:51;;;;;;;;;;;;;;;;;;4971054;28;19911;-47
2024/03/23 12:56:18;;;;;;;;;;;;;;;;;;4972820;28;19961;-47
2024/03/23 12:58:44;;;;;;;;;;;;;;;;;;4971940;28;19983;-50
2024/03/23 13:01:10;;;;;;;;;;;;;;;;;;4972212;28;19922;-51
2024/03/23 13:03:36;;;;;;;;;;;;;;;;;;4974515;28;19914;-51
2024/03/23 13:06:04;;;;;;;;;;;;;;;;;;4980235;28;20016;-51
2024/03/23 13:08:30;;;;;;;;;;;;;;;;;;4971889;28;19914;-49
2024/03/23 13:10:56;;;;;;;;;;;;;;;;;;4975119;28;19921;-49
2024/03/23 13:13:22;;;;;;;;;;;;;;;;;;4973430;28;20343;-49
2024/03/23 13:15:48;;;;;;;;;;;;;;;;;;4991590;28;19921;-47
2024/03/23 13:18:14;;;;;;;;;;;;;;;;;;4981833;28;19910;-48
2024/03/23 13:20:39;;;;;;;;;;;;;;;;;;4976727;28;19949;-48
2024/03/23 13:23:05;;;;;;;;;;;;;;;;;;4979442;28;20022;-47
2024/03/23 13:25:31;;;;;;;;;;;;;;;;;;4972164;28;20299;-48
2024/03/23 13:27:57;;;;;;;;;;;;;;;;;;4990821;28;19910;-49
2024/03/23 13:30:23;;;;;;;;;;;;;;;;;;4989823;28;20301;-50
2024/03/23 13:32:49;;;;;;;;;;;;;;;;;;4980822;28;19921;-49
2024/03/23 13:35:16;;;;;;;;;;;;;;;;;;4991588;28;19996;-47
2024/03/23 13:37:42;;;;;;;;;;;;;;;;;;4977336;28;20607;-49
2024/03/23 13:40:08;;;;;;;;;;;;;;;;;;4983636;28;19910;-49
2024/03/23 13:42:33;;;;;;;;;;;;;;;;;;4972195;28;20273;-49
2024/03/23 13:44:59;;;;;;;;;;;;;;;;;;4975696;28;20030;-48
2024/03/23 13:47:25;;;;;;;;;;;;;;;;;;4976583;28;20414;-49
2024/03/23 13:49:51;;;;;;;;;;;;;;;;;;4956251;29;19921;-49
2024/03/23 13:52:22;;;;;;;;;;;;;;;;;;4956538;29;19957;-49
2024/03/23 13:54:48;;;;;;;;;;;;;;;;;;4956303;29;19917;-48
2024/03/23 13:57:14;;;;;;;;;;;;;;;;;;4956033;29;19914;-49
2024/03/23 13:59:40;;;;;;;;;;;;;;;;;;4955731;29;19917;-48
2024/03/23 14:02:06;;;;;;;;;;;;;;;;;;4955895;29;20005;-47
2024/03/23 14:04:32;;;;;;;;;;;;;;;;;;4955636;29;19966;-47
2024/03/23 14:06:57;;;;;;;;;;;;;;;;;;4955505;29;20497;-48
2024/03/23 14:09:25;;;;;;;;;;;;;;;;;;4955431;29;19911;-48
2024/03/23 14:11:51;;;;;;;;;;;;;;;;;;4956227;29;19970;-47
2024/03/23 14:14:17;;;;;;;;;;;;;;;;;;4976044;28;19945;-47
2024/03/23 14:16:43;;;;;;;;;;;;;;;;;;4976327;28;19922;-49
2024/03/23 14:19:09;;;;;;;;;;;;;;;;;;4974954;28;19920;-49
2024/03/23 14:21:35;;;;;;;;;;;;;;;;;;4973596;28;20008;-47
2024/03/23 14:24:01;;;;;;;;;;;;;;;;;;4974487;28;19922;-49
2024/03/23 14:26:27;;;;;;;;;;;;;;;;;;4974848;28;19914;-49
2024/03/23 14:28:53;;;;;;;;;;;;;;;;;;4974795;28;20024;-50
2024/03/23 14:31:19;;;;;;;;;;;;;;;;;;4976028;28;19914;-51
2024/03/23 14:33:46;;;;;;;;;;;;;;;;;;4974717;28;20300;-51
2024/03/23 14:36:12;;;;;;;;;;;;;;;;;;4974644;28;19976;-51
2024/03/23 14:38:38;;;;;;;;;;;;;;;;;;4974465;28;19915;-50
2024/03/23 14:41:04;;;;;;;;;;;;;;;;;;4976966;28;19945;-48
2024/03/23 14:43:30;;;;;;;;;;;;;;;;;;4983623;28;19914;-48
2024/03/23 14:45:56;;;;;;;;;;;;;;;;;;4974489;28;19910;-49
2024/03/23 14:48:22;;;;;;;;;;;;;;;;;;4974599;28;19977;-48
2024/03/23 14:50:48;;;;;;;;;;;;;;;;;;4974350;28;20316;-51
2024/03/23 14:53:14;;;;;;;;;;;;;;;;;;4975664;28;19914;-51
2024/03/23 14:55:47;;;;;;;;;;;;;;;;;;4973531;28;19914;-49
2024/03/23 14:58:13;;;;;;;;;;;;;;;;;;4974119;28;20377;-51
2024/03/23 15:00:39;;;;;;;;;;;;;;;;;;4974925;28;19929;-51
2024/03/23 15:03:04;;;;;;;;;;;;;;;;;;4974081;28;20000;-48
2024/03/23 15:05:30;;;;;;;;;;;;;;;;;;4973860;28;19952;-48
2024/03/23 15:07:58;;;;;;;;;;;;;;;;;;4974780;28;19937;-47
2024/03/23 15:10:24;;;;;;;;;;;;;;;;;;4974958;28;19914;-50
2024/03/23 15:12:50;;;;;;;;;;;;;;;;;;4973835;28;19910;-48
2024/03/23 15:15:15;;;;;;;;;;;;;;;;;;4985206;28;20303;-50
2024/03/23 15:17:44;;;;;;;;;;;;;;;;;;4980287;28;19969;-50
2024/03/23 15:20:11;;;;;;;;;;;;;;;;;;4993378;28;20266;-48
2024/03/23 15:22:37;;;;;;;;;;;;;;;;;;4993010;28;19996;-52
2024/03/23 15:25:03;;;;;;;;;;;;;;;;;;4993004;28;19956;-48
2024/03/23 15:27:29;;;;;;;;;;;;;;;;;;4993077;28;19916;-50
2024/03/23 15:29:55;;;;;;;;;;;;;;;;;;4993064;28;19932;-50
2024/03/23 15:32:20;;;;;;;;;;;;;;;;;;4993045;28;19956;-48
2024/03/23 15:34:46;;;;;;;;;;;;;;;;;;4992780;28;20374;-48
2024/03/23 15:37:12;;;;;;;;;;;;;;;;;;4992679;28;19921;-52
2024/03/23 15:39:38;;;;;;;;;;;;;;;;;;4992695;28;19917;-50
2024/03/23 15:42:05;;;;;;;;;;;;;;;;;;4974906;28;20030;-51
2024/03/23 15:44:31;;;;;;;;;;;;;;;;;;4990954;28;19924;-51
2024/03/23 15:46:57;;;;;;;;;;;;;;;;;;4979242;28;20360;-50
2024/03/23 15:49:23;;;;;;;;;;;;;;;;;;4973270;28;19910;-51
2024/03/23 15:51:49;;;;;;;;;;;;;;;;;;4972705;28;19910;-50
2024/03/23 15:54:14;;;;;;;;;;;;;;;;;;4977314;28;19914;-50
2024/03/23 15:56:40;;;;;;;;;;;;;;;;;;4992366;28;19953;-48
2024/03/23 15:59:06;;;;;;;;;;;;;;;;;;4992368;28;20374;-48
2024/03/23 16:01:33;;;;;;;;;;;;;;;;;;4990447;28;19925;-48
2024/03/23 16:03:59;;;;;;;;;;;;;;;;;;4992434;28;20287;-50
2024/03/23 16:06:25;;;;;;;;;;;;;;;;;;4991519;28;19920;-49
2024/03/23 16:08:52;;;;;;;;;;;;;;;;;;4992204;28;19917;-51
2024/03/23 16:11:18;;;;;;;;;;;;;;;;;;4992286;28;19914;-51
2024/03/23 16:13:44;;;;;;;;;;;;;;;;;;4992223;28;19957;-47
2024/03/23 16:16:10;;;;;;;;;;;;;;;;;;4991907;28;19921;-50
2024/03/23 16:18:36;;;;;;;;;;;;;;;;;;4973218;28;20008;-51
2024/03/23 16:21:02;;;;;;;;;;;;;;;;;;4972582;28;19917;-49
2024/03/23 16:23:28;;;;;;;;;;;;;;;;;;4972997;28;20280;-47
2024/03/23 16:25:57;;;;;;;;;;;;;;;;;;4972827;28;19934;-51
2024/03/23 16:28:23;;;;;;;;;;;;;;;;;;4972560;28;20268;-55
2024/03/23 16:30:49;;;;;;;;;;;;;;;;;;4973794;28;19918;-48
2024/03/23 16:33:15;;;;;;;;;;;;;;;;;;4989054;28;19940;-48
2024/03/23 16:35:41;;;;;;;;;;;;;;;;;;4981096;28;20383;-48
2024/03/23 16:38:07;;;;;;;;;;;;;;;;;;4972240;28;19910;-51
2024/03/23 16:40:33;;;;;;;;;;;;;;;;;;4971977;28;19988;-48
2024/03/23 16:42:59;;;;;;;;;;;;;;;;;;4972294;28;19914;-51
2024/03/23 16:45:25;;;;;;;;;;;;;;;;;;4971348;28;19914;-51
2024/03/23 16:47:51;;;;;;;;;;;;;;;;;;4972244;28;19981;-50
2024/03/23 16:50:17;;;;;;;;;;;;;;;;;;4975008;28;20013;-49
2024/03/23 16:52:44;;;;;;;;;;;;;;;;;;4977689;28;19910;-51
2024/03/23 16:55:10;;;;;;;;;;;;;;;;;;4971647;28;19961;-51
2024/03/23 16:57:36;;;;;;;;;;;;;;;;;;4973189;28;20351;-50
2024/03/23 17:00:01;;;;;;;;;;;;;;;;;;4972536;28;19910;-52
2024/03/23 17:02:27;;;;;;;;;;;;;;;;;;4977012;28;19918;-52
2024/03/23 17:04:53;;;;;;;;;;;;;;;;;;4971930;28;20316;-49
2024/03/23 17:07:19;;;;;;;;;;;;;;;;;;4972036;28;19917;-49
2024/03/23 17:09:45;;;;;;;;;;;;;;;;;;4973056;28;19949;-51
2024/03/23 17:12:11;;;;;;;;;;;;;;;;;;4972075;28;19914;-51
2024/03/23 17:14:37;;;;;;;;;;;;;;;;;;4971997;28;19933;-50
2024/03/23 17:17:02;;;;;;;;;;;;;;;;;;4974858;28;19918;-51
2024/03/23 17:19:29;;;;;;;;;;;;;;;;;;4979396;28;20511;-51
2024/03/23 17:21:55;;;;;;;;;;;;;;;;;;4976945;28;20265;-49
2024/03/23 17:24:21;;;;;;;;;;;;;;;;;;4979722;28;19925;-48
2024/03/23 17:26:47;;;;;;;;;;;;;;;;;;4963239;28;19961;-48
2024/03/23 17:29:12;;;;;;;;;;;;;;;;;;4982120;28;19915;-48
2024/03/23 17:31:38;;;;;;;;;;;;;;;;;;4979150;28;19922;-48
2024/03/23 17:34:04;;;;;;;;;;;;;;;;;;4977876;28;19922;-46
2024/03/23 17:36:30;;;;;;;;;;;;;;;;;;4993791;28;19918;-47
2024/03/23 17:38:56;;;;;;;;;;;;;;;;;;4980774;28;19938;-51
2024/03/23 17:41:27;;;;;;;;;;;;;;;;;;4982218;28;19913;-48
2024/03/23 17:43:53;;;;;;;;;;;;;;;;;;4991719;28;20240;-49
2024/03/23 17:46:19;;;;;;;;;;;;;;;;;;4976586;28;19929;-47
2024/03/23 17:48:45;;;;;;;;;;;;;;;;;;4973945;28;19953;-48
2024/03/23 17:51:11;;;;;;;;;;;;;;;;;;4974281;28;19914;-50
2024/03/23 17:53:37;;;;;;;;;;;;;;;;;;4974096;28;19961;-47
2024/03/23 17:56:02;;;;;;;;;;;;;;;;;;4980024;28;19918;-47
2024/03/23 17:58:28;;;;;;;;;;;;;;;;;;4981474;28;19910;-51
2024/03/23 18:00:54;;;;;;;;;;;;;;;;;;4974710;28;19949;-48
2024/03/23 18:03:20;;;;;;;;;;;;;;;;;;4959805;28;20073;-48
2024/03/23 18:05:46;;;;;;;;;;;;;;;;;;4975937;28;20327;-49
2024/03/23 18:08:12;;;;;;;;;;;;;;;;;;4975063;28;19914;-48
2024/03/23 18:10:38;;;;;;;;;;;;;;;;;;4979798;28;20288;-50
2024/03/23 18:13:03;;;;;;;;;;;;;;;;;;4974168;28;20004;-48
2024/03/23 18:15:29;;;;;;;;;;;;;;;;;;4973508;28;20379;-47
2024/03/23 18:17:55;;;;;;;;;;;;;;;;;;4957458;28;19914;-52
2024/03/23 18:20:21;;;;;;;;;;;;;;;;;;4974517;28;20373;-48
2024/03/23 18:22:49;;;;;;;;;;;;;;;;;;4985776;28;20229;-48
2024/03/23 18:25:15;;;;;;;;;;;;;;;;;;4975390;28;19968;-48
2024/03/23 18:27:41;;;;;;;;;;;;;;;;;;4974201;28;19918;-47
2024/03/23 18:30:07;;;;;;;;;;;;;;;;;;4973209;28;19910;-51
2024/03/23 18:32:33;;;;;;;;;;;;;;;;;;4974486;28;19910;-48
2024/03/23 18:34:58;;;;;;;;;;;;;;;;;;4974381;28;19973;-48
2024/03/23 18:37:24;;;;;;;;;;;;;;;;;;4973842;28;19918;-48
2024/03/23 18:39:50;;;;;;;;;;;;;;;;;;4973870;28;19914;-50
2024/03/23 18:42:16;;;;;;;;;;;;;;;;;;4973352;28;19914;-51
2024/03/23 18:44:42;;;;;;;;;;;;;;;;;;4973560;28;20293;-51
2024/03/23 18:47:08;;;;;;;;;;;;;;;;;;4956227;28;19914;-49
2024/03/23 18:49:34;;;;;;;;;;;;;;;;;;4973101;28;19914;-50
2024/03/23 18:52:00;;;;;;;;;;;;;;;;;;4971533;28;19937;-48
2024/03/23 18:54:26;;;;;;;;;;;;;;;;;;4972237;28;19968;-49
2024/03/23 18:56:52;;;;;;;;;;;;;;;;;;4973032;28;20303;-48
2024/03/23 18:59:18;;;;;;;;;;;;;;;;;;4971512;28;19918;-49
2024/03/23 19:01:44;;;;;;;;;;;;;;;;;;4955711;28;19945;-47
2024/03/23 19:04:09;;;;;;;;;;;;;;;;;;4969295;28;19921;-48
2024/03/23 19:06:36;;;;;;;;;;;;;;;;;;4968102;28;19977;-47
2024/03/23 19:09:02;;;;;;;;;;;;;;;;;;4954175;28;19914;-48
2024/03/23 19:11:28;;;;;;;;;;;;;;;;;;4974514;28;20319;-47
2024/03/23 19:13:54;;;;;;;;;;;;;;;;;;4971387;28;19918;-47
2024/03/23 19:16:20;;;;;;;;;;;;;;;;;;4974934;28;19918;-46
2024/03/23 19:18:46;;;;;;;;;;;;;;;;;;4978712;28;19961;-46
2024/03/23 19:21:12;;;;;;;;;;;;;;;;;;4954013;28;19914;-48
2024/03/23 19:23:37;;;;;;;;;;;;;;;;;;4964955;28;20370;-47
2024/03/23 19:26:03;;;;;;;;;;;;;;;;;;4967253;28;19918;-47
2024/03/23 19:28:29;;;;;;;;;;;;;;;;;;4953104;28;20444;-47
2024/03/23 19:30:55;;;;;;;;;;;;;;;;;;4969275;28;19961;-47
2024/03/23 19:33:21;;;;;;;;;;;;;;;;;;4969676;28;19918;-48
2024/03/23 19:35:47;;;;;;;;;;;;;;;;;;4972548;28;20687;-49
2024/03/23 19:38:13;;;;;;;;;;;;;;;;;;4971361;28;20343;-50
2024/03/23 19:40:39;;;;;;;;;;;;;;;;;;4971223;28;19918;-49
2024/03/23 19:43:06;;;;;;;;;;;;;;;;;;4971931;28;20392;-51
2024/03/23 19:45:32;;;;;;;;;;;;;;;;;;4969972;28;19944;-48
2024/03/23 19:47:58;;;;;;;;;;;;;;;;;;4971006;28;20356;-47
2024/03/23 19:50:24;;;;;;;;;;;;;;;;;;4970174;28;20045;-49
2024/03/23 19:52:52;;;;;;;;;;;;;;;;;;4969148;28;19918;-47
2024/03/23 19:55:19;;;;;;;;;;;;;;;;;;4971535;28;19960;-51
2024/03/23 19:57:45;;;;;;;;;;;;;;;;;;4971825;28;19917;-48
2024/03/23 20:00:10;;;;;;;;;;;;;;;;;;4970579;28;19918;-51
2024/03/23 20:02:37;;;;;;;;;;;;;;;;;;4970784;28;19965;-51
2024/03/23 20:05:03;;;;;;;;;;;;;;;;;;4972280;28;19914;-51
2024/03/23 20:07:28;;;;;;;;;;;;;;;;;;4970251;28;19921;-49
2024/03/23 20:09:54;;;;;;;;;;;;;;;;;;4978464;28;20011;-52
2024/03/23 20:12:20;;;;;;;;;;;;;;;;;;4970355;28;19940;-50
2024/03/23 20:14:46;;;;;;;;;;;;;;;;;;4971462;28;20408;-49
2024/03/23 20:17:12;;;;;;;;;;;;;;;;;;4970248;28;19918;-48
2024/03/23 20:19:38;;;;;;;;;;;;;;;;;;4967840;28;20300;-49
2024/03/23 20:22:05;;;;;;;;;;;;;;;;;;4967105;28;19914;-48
2024/03/23 20:24:31;;;;;;;;;;;;;;;;;;4952368;28;20345;-52
2024/03/23 20:26:57;;;;;;;;;;;;;;;;;;4969654;28;19917;-50
2024/03/23 20:29:23;;;;;;;;;;;;;;;;;;4968278;28;19914;-50
2024/03/23 20:31:49;;;;;;;;;;;;;;;;;;4969753;28;20005;-48
2024/03/23 20:34:14;;;;;;;;;;;;;;;;;;4969576;28;19914;-50
2024/03/23 20:36:40;;;;;;;;;;;;;;;;;;4967791;28;19922;-48
2024/03/23 20:39:06;;;;;;;;;;;;;;;;;;4969124;28;19961;-47
2024/03/23 20:41:32;;;;;;;;;;;;;;;;;;4970390;28;20009;-48
2024/03/23 20:43:58;;;;;;;;;;;;;;;;;;4970006;28;19915;-51
2024/03/23 20:46:24;;;;;;;;;;;;;;;;;;4968103;28;20392;-49
2024/03/23 20:48:50;;;;;;;;;;;;;;;;;;4969998;28;19914;-48
2024/03/23 20:51:16;;;;;;;;;;;;;;;;;;4970743;28;19965;-48
2024/03/23 20:53:42;;;;;;;;;;;;;;;;;;4968720;28;19918;-51
2024/03/23 20:56:08;;;;;;;;;;;;;;;;;;4974254;28;19998;-48
2024/03/23 20:58:35;;;;;;;;;;;;;;;;;;4955584;28;20301;-47
2024/03/23 21:01:01;;;;;;;;;;;;;;;;;;4955305;28;19922;-50
2024/03/23 21:03:26;;;;;;;;;;;;;;;;;;4974349;28;19918;-50
2024/03/23 21:05:52;;;;;;;;;;;;;;;;;;4972066;28;19918;-48
2024/03/23 21:08:18;;;;;;;;;;;;;;;;;;4969913;28;19914;-48
2024/03/23 21:10:44;;;;;;;;;;;;;;;;;;4973593;28;20044;-49
2024/03/23 21:13:10;;;;;;;;;;;;;;;;;;4972937;28;19921;-52
2024/03/23 21:15:36;;;;;;;;;;;;;;;;;;4969928;28;19918;-50
2024/03/23 21:18:02;;;;;;;;;;;;;;;;;;4970056;28;19965;-52
2024/03/23 21:20:28;;;;;;;;;;;;;;;;;;4970524;28;19914;-48
2024/03/23 21:22:54;;;;;;;;;;;;;;;;;;4970573;28;19918;-47
2024/03/23 21:25:20;;;;;;;;;;;;;;;;;;4969527;28;19918;-49
2024/03/23 21:27:45;;;;;;;;;;;;;;;;;;4955057;28;20013;-47
2024/03/23 21:30:12;;;;;;;;;;;;;;;;;;4970229;28;20380;-48
2024/03/23 21:32:38;;;;;;;;;;;;;;;;;;4972515;28;19921;-47
2024/03/23 21:35:04;;;;;;;;;;;;;;;;;;4972947;28;19914;-48
2024/03/23 21:37:29;;;;;;;;;;;;;;;;;;4972378;28;19930;-47
2024/03/23 21:39:55;;;;;;;;;;;;;;;;;;4971983;28;20372;-46
2024/03/23 21:42:21;;;;;;;;;;;;;;;;;;4972201;28;19914;-47
2024/03/23 21:44:47;;;;;;;;;;;;;;;;;;4973280;28;20380;-47
2024/03/23 21:47:13;;;;;;;;;;;;;;;;;;4972890;28;19917;-46
2024/03/23 21:49:39;;;;;;;;;;;;;;;;;;4973891;28;19914;-46
2024/03/23 21:52:05;;;;;;;;;;;;;;;;;;4972670;28;19910;-47
2024/03/23 21:54:31;;;;;;;;;;;;;;;;;;4971914;28;19918;-46
2024/03/23 21:56:57;;;;;;;;;;;;;;;;;;4972358;28;19918;-46
2024/03/23 21:59:23;;;;;;;;;;;;;;;;;;4971396;28;19963;-46
2024/03/23 22:01:49;;;;;;;;;;;;;;;;;;4910977;28;1777783;-47
2024/03/23 22:04:15;;;;;;;;;;;;;;;;;;4971128;28;19918;-46
2024/03/23 22:06:40;;;;;;;;;;;;;;;;;;4973872;28;19915;-46
2024/03/23 22:09:08;;;;;;;;;;;;;;;;;;4956296;28;19914;-47
2024/03/23 22:11:34;;;;;;;;;;;;;;;;;;4972841;28;19914;-50
2024/03/23 22:14:00;;;;;;;;;;;;;;;;;;4971966;28;19918;-47
2024/03/23 22:16:26;;;;;;;;;;;;;;;;;;4973379;28;19941;-46
2024/03/23 22:18:52;;;;;;;;;;;;;;;;;;4955637;28;19914;-48
2024/03/23 22:21:18;;;;;;;;;;;;;;;;;;4972288;28;19921;-47
2024/03/23 22:23:44;;;;;;;;;;;;;;;;;;4973038;28;20483;-48
2024/03/23 22:26:10;;;;;;;;;;;;;;;;;;4967115;28;19920;-46
2024/03/23 22:28:36;;;;;;;;;;;;;;;;;;4975443;28;19910;-46
2024/03/23 22:31:02;;;;;;;;;;;;;;;;;;4986385;28;20470;-46
2024/03/23 22:33:28;;;;;;;;;;;;;;;;;;4990726;28;19929;-47
2024/03/23 22:35:55;;;;;;;;;;;;;;;;;;4982624;28;20340;-48
2024/03/23 22:38:21;;;;;;;;;;;;;;;;;;4972459;28;19921;-49